Time;durP1;ratioP1;P1;durP2;ratioP2;P2;SDS_P1;SDS_P2;PMS_P1;PMS_P2;Temp;Humidity;BMP_temperature;BMP_pressure;BME280_temperature;BME280_humidity;BME280_pressure;Samples;Min_cycle;Max_cycle;Signal;HPM_P1;HPM_P2
2022/01/06 00:01:43;;;;;;;54.28;32.00;;;;;;;1.73;78.98;92594.19;5110763;28;20499;-33
2022/01/06 00:04:08;;;;;;;53.13;30.90;;;;;;;1.98;78.89;92614.66;5110741;28;20069;-33
2022/01/06 00:06:38;;;;;;;64.43;35.35;;;;;;;2.12;77.94;92610.75;5110745;28;20023;-33
2022/01/06 00:09:05;;;;;;;54.15;31.33;;;;;;;2.01;78.05;92610.19;5110601;28;20496;-33
2022/01/06 00:11:31;;;;;;;52.13;29.88;;;;;;;1.99;78.15;92609.94;5110774;28;20061;-33
2022/01/06 00:14:39;;;;;;;52.08;29.15;;;;;;;2.02;77.48;92612.38;5110603;28;20114;-33
2022/01/06 00:24:48;;;;;;;41.03;24.50;;;;;;;1.78;78.62;92633.44;5110570;28;20546;-33
2022/01/06 00:27:14;;;;;;;33.63;20.33;;;;;;;1.98;77.20;92622.06;5111754;28;20024;-33
2022/01/06 00:29:41;;;;;;;29.63;18.92;;;;;;;1.51;78.47;92627.06;5114772;28;20080;-33
2022/01/06 00:32:06;;;;;;;38.33;24.63;;;;;;;1.66;80.11;92626.66;5113752;28;20039;-33
2022/01/06 00:34:32;;;;;;;28.15;17.17;;;;;;;1.75;80.22;92618.16;5114789;28;20561;-33
2022/01/06 00:36:57;;;;;;;27.85;18.88;;;;;;;1.76;79.70;92616.88;5114585;28;20515;-33
2022/01/06 00:39:27;;;;;;;25.17;16.70;;;;;;;1.73;78.74;92612.50;5114591;28;20016;-33
2022/01/06 00:41:56;;;;;;;18.08;9.48;;;;;;;1.41;78.97;92607.63;5114452;27;20057;-33
2022/01/06 00:44:21;;;;;;;16.38;11.02;;;;;;;1.51;79.49;92595.16;5114793;28;20024;-33
2022/01/06 00:46:47;;;;;;;17.67;11.95;;;;;;;1.69;81.67;92606.59;5114346;28;20424;-33
2022/01/06 00:49:13;;;;;;;14.40;9.85;;;;;;;1.57;82.05;92616.13;5114369;28;20023;-33
2022/01/06 00:51:38;;;;;;;15.27;9.93;;;;;;;1.61;82.82;92611.88;5114326;28;20050;-33
2022/01/06 00:54:04;;;;;;;12.85;8.65;;;;;;;1.70;83.57;92611.53;5113522;28;20098;-33
2022/01/06 00:56:29;;;;;;;10.93;8.20;;;;;;;1.73;83.14;92615.22;5114344;28;20024;-33
2022/01/06 00:58:55;;;;;;;14.57;9.68;;;;;;;1.68;80.70;92608.56;5114472;28;20011;-33
2022/01/06 01:01:20;;;;;;;13.73;8.02;;;;;;;1.70;80.09;92616.97;5114001;28;20040;-33
2022/01/06 01:03:46;;;;;;;15.60;9.95;;;;;;;1.81;80.38;92605.22;5114036;28;20473;-33
2022/01/06 01:06:11;;;;;;;11.68;8.73;;;;;;;2.05;82.07;92599.72;5114141;28;20024;-33
2022/01/06 01:08:38;;;;;;;10.10;6.55;;;;;;;2.15;81.30;92596.13;5114223;28;20110;-33
2022/01/06 01:11:04;;;;;;;12.85;8.35;;;;;;;2.03;81.17;92604.94;5114242;28;20027;-33
2022/01/06 01:13:32;;;;;;;12.50;9.32;;;;;;;1.55;80.18;92605.75;5113971;28;20484;-33
2022/01/06 01:16:07;;;;;;;11.57;7.80;;;;;;;1.31;81.87;92597.59;5114143;28;20027;-33
2022/01/06 01:18:32;;;;;;;46.90;13.60;;;;;;;1.34;82.34;92608.19;5113899;28;20047;-33
2022/01/06 01:20:58;;;;;;;19.80;9.20;;;;;;;1.26;82.57;92603.81;5114097;28;20115;-33
2022/01/06 01:23:24;;;;;;;14.75;9.93;;;;;;;1.40;82.32;92606.16;5114085;28;20020;-33
2022/01/06 01:25:50;;;;;;;15.05;9.25;;;;;;;1.12;82.77;92608.41;5113945;28;20437;-33
2022/01/06 01:28:16;;;;;;;10.63;7.93;;;;;;;1.32;82.93;92620.84;5113622;28;20019;-34
2022/01/06 01:33:26;;;;;;;15.00;9.32;;;;;;;1.69;83.82;92620.22;5113915;28;20108;-33
2022/01/06 01:35:51;;;;;;;13.13;8.65;;;;;;;1.76;85.91;92619.59;5113526;28;20081;-33
2022/01/06 01:38:17;;;;;;;16.15;9.52;;;;;;;1.64;86.20;92619.03;5113443;28;20023;-33
2022/01/06 01:40:42;;;;;;;15.52;9.40;;;;;;;1.76;85.16;92616.88;5113736;28;20015;-34
2022/01/06 01:43:08;;;;;;;17.65;10.18;;;;;;;1.67;84.82;92611.81;5113732;27;20510;-33
2022/01/06 01:45:34;;;;;;;14.70;10.07;;;;;;;1.93;82.91;92617.44;5113280;28;20024;-33
2022/01/06 01:48:05;;;;;;;15.40;9.63;;;;;;;1.78;81.65;92606.97;5111924;28;20034;-33
2022/01/06 01:50:31;;;;;;;15.38;10.70;;;;;;;1.86;80.66;92590.81;5113350;28;20016;-34
2022/01/06 01:52:57;;;;;;;13.65;11.13;;;;;;;1.81;80.37;92600.50;5112725;28;20057;-33
2022/01/06 01:55:25;;;;;;;19.08;10.60;;;;;;;1.46;81.97;92587.78;5113204;28;20023;-33
2022/01/06 01:57:52;;;;;;;18.63;11.75;;;;;;;1.46;81.89;92587.78;5113053;28;20015;-34
2022/01/06 02:00:20;;;;;;;15.50;9.82;;;;;;;1.50;81.98;92590.22;5112775;28;20047;-33
2022/01/06 02:02:46;;;;;;;10.90;8.82;;;;;;;1.62;80.96;92599.00;5113251;28;20051;-33
2022/01/06 02:05:12;;;;;;;15.10;7.45;;;;;;;1.35;80.49;92582.47;5113034;28;20027;-34
2022/01/06 02:07:39;;;;;;;15.88;9.55;;;;;;;1.31;80.89;92605.75;5113101;28;20020;-33
2022/01/06 02:10:06;;;;;;;18.00;9.75;;;;;;;1.38;82.28;92603.22;5113044;28;20417;-33
2022/01/06 02:12:35;;;;;;;13.93;8.40;;;;;;;1.49;81.89;92607.81;5112921;28;20110;-33
2022/01/06 02:15:01;;;;;;;18.90;11.93;;;;;;;1.38;84.08;92597.03;5113115;28;20079;-34
2022/01/06 02:17:26;;;;;;;15.32;10.73;;;;;;;1.47;84.66;92593.97;5112718;27;20016;-33
2022/01/06 02:19:56;;;;;;;21.25;11.13;;;;;;;1.46;84.75;92597.94;5112860;28;20043;-33
2022/01/06 02:22:22;;;;;;;17.20;10.68;;;;;;;1.29;84.45;92584.53;5112576;28;20081;-34
2022/01/06 02:24:48;;;;;;;14.88;9.88;;;;;;;1.41;82.54;92591.31;5112758;28;20020;-34
2022/01/06 02:27:14;;;;;;;15.88;10.68;;;;;;;1.36;82.20;92600.28;5112386;28;20535;-33
2022/01/06 02:29:40;;;;;;;17.50;11.25;;;;;;;1.21;82.05;92572.00;5112437;28;20024;-33
2022/01/06 02:32:11;;;;;;;19.95;12.80;;;;;;;1.22;82.57;92595.94;5111205;28;20106;-33
2022/01/06 02:34:36;;;;;;;22.40;14.63;;;;;;;1.19;83.26;92586.09;5112362;28;20235;-33
2022/01/06 02:37:03;;;;;;;26.52;18.33;;;;;;;1.07;82.43;92589.44;5112348;28;20030;-33
2022/01/06 02:39:29;;;;;;;25.40;15.77;;;;;;;1.26;82.30;92601.84;5112362;28;20032;-33
2022/01/06 02:41:54;;;;;;;28.17;17.17;;;;;;;1.27;81.25;92591.72;5112392;28;20023;-33
2022/01/06 02:44:24;;;;;;;29.95;17.88;;;;;;;1.26;81.24;92571.19;5112183;28;20508;-33
2022/01/06 02:46:49;;;;;;;25.80;17.02;;;;;;;1.18;82.41;92595.50;5091718;28;20043;-34
2022/01/06 02:49:15;;;;;;;24.65;13.90;;;;;;;1.23;82.08;92592.00;5091426;28;20028;-33
2022/01/06 02:51:41;;;;;;;21.98;14.73;;;;;;;1.16;81.78;92611.59;5091367;28;20031;-33
2022/01/06 02:54:07;;;;;;;25.38;14.45;;;;;;;1.28;80.96;92614.91;5107013;28;20106;-33
2022/01/06 02:56:33;;;;;;;23.85;13.15;;;;;;;1.05;82.19;92617.13;5112012;28;20110;-34
2022/01/06 02:58:58;;;;;;;24.90;16.92;;;;;;;1.04;83.09;92610.19;5112176;28;20032;-34
2022/01/06 03:01:24;;;;;;;19.17;12.40;;;;;;;0.86;84.42;92594.56;5111674;28;20524;-33
2022/01/06 03:03:50;;;;;;;22.20;12.02;;;;;;;0.88;83.98;92594.03;5111740;28;20066;-33
2022/01/06 03:06:15;;;;;;;18.10;11.13;;;;;;;0.94;83.23;92606.34;5111782;28;20031;-33
2022/01/06 03:08:41;;;;;;;13.85;9.18;;;;;;;0.90;82.73;92608.59;5111912;28;20043;-33
2022/01/06 03:11:07;;;;;;;14.80;9.93;;;;;;;0.98;82.36;92609.50;5111652;28;20066;-33
2022/01/06 03:13:33;;;;;;;13.65;9.52;;;;;;;0.84;83.00;92616.06;5111979;28;20016;-33
2022/01/06 03:15:59;;;;;;;20.00;12.35;;;;;;;0.82;83.28;92601.50;5111521;28;20062;-33
2022/01/06 03:18:25;;;;;;;14.55;10.32;;;;;;;0.90;83.42;92602.44;5111839;28;20084;-33
2022/01/06 03:20:50;;;;;;;16.63;11.43;;;;;;;0.91;82.30;92615.50;5111813;28;20023;-33
2022/01/06 03:23:16;;;;;;;19.58;12.15;;;;;;;0.92;81.72;92611.56;5111314;28;20568;-33
2022/01/06 03:25:41;;;;;;;14.10;10.60;;;;;;;0.97;81.02;92618.19;5111739;28;20157;-33
2022/01/06 03:28:07;;;;;;;15.70;10.80;;;;;;;1.01;81.66;92608.50;5111476;28;20046;-33
2022/01/06 03:30:32;;;;;;;24.17;12.45;;;;;;;0.74;81.31;92599.34;5111372;28;20047;-33
2022/01/06 03:32:59;;;;;;;18.73;12.35;;;;;;;0.58;83.49;92607.63;5110120;28;20432;-33
2022/01/06 03:35:25;;;;;;;19.75;12.93;;;;;;;0.73;82.76;92608.00;5111624;28;20027;-33
2022/01/06 03:37:51;;;;;;;17.42;12.55;;;;;;;0.67;82.63;92615.47;5111138;28;20544;-33
2022/01/06 03:40:16;;;;;;;27.92;16.65;;;;;;;0.79;83.38;92611.41;5111462;28;20186;-33
2022/01/06 03:42:42;;;;;;;44.17;22.52;;;;;;;0.70;82.29;92611.72;5111431;28;20085;-33
2022/01/06 03:45:10;;;;;;;59.58;30.60;;;;;;;0.78;82.56;92620.78;5111039;28;20027;-33
2022/01/06 03:47:36;;;;;;;26.60;16.63;;;;;;;0.74;82.76;92626.50;5110917;28;20080;-33
2022/01/06 03:50:01;;;;;;;57.80;33.55;;;;;;;0.48;83.28;92628.91;5111168;28;20028;-33
2022/01/06 03:52:27;;;;;;;29.83;19.55;;;;;;;0.64;83.96;92627.31;5111135;28;20030;-33
2022/01/06 03:54:52;;;;;;;31.33;18.25;;;;;;;0.52;83.68;92640.25;5110345;28;20416;-34
2022/01/06 03:57:18;;;;;;;45.30;26.25;;;;;;;0.52;83.59;92645.66;5110887;28;20452;-33
2022/01/06 03:59:43;;;;;;;43.95;24.52;;;;;;;0.37;84.00;92645.28;5110828;28;20130;-33
2022/01/06 04:02:09;;;;;;;28.85;17.50;;;;;;;0.43;84.18;92637.84;5110232;28;20059;-33
2022/01/06 04:04:35;;;;;;;31.48;18.90;;;;;;;0.56;83.30;92651.56;5110765;28;20031;-33
2022/01/06 04:07:00;;;;;;;35.35;21.05;;;;;;;0.38;83.29;92651.44;5111054;28;20054;-33
2022/01/06 04:09:26;;;;;;;26.58;17.10;;;;;;;0.68;83.15;92654.94;5110606;28;20603;-33
2022/01/06 04:11:51;;;;;;;23.85;13.90;;;;;;;0.58;83.31;92653.78;5110874;28;20032;-33
2022/01/06 04:14:17;;;;;;;27.38;16.70;;;;;;;0.43;84.02;92648.72;5110633;28;20476;-33
2022/01/06 04:16:42;;;;;;;25.63;15.60;;;;;;;0.31;84.68;92641.84;5110666;28;20035;-33
2022/01/06 04:19:09;;;;;;;28.02;16.90;;;;;;;0.37;84.82;92656.13;5110439;28;20561;-33
2022/01/06 04:21:35;;;;;;;39.25;23.48;;;;;;;0.40;83.81;92654.38;5110619;28;20030;-33
2022/01/06 04:24:00;;;;;;;30.15;17.33;;;;;;;0.49;82.67;92657.56;5110485;28;20028;-33
2022/01/06 04:26:26;;;;;;;45.00;25.25;;;;;;;0.39;82.18;92659.06;5110859;28;20026;-33
2022/01/06 04:28:51;;;;;;;40.03;23.92;;;;;;;0.57;81.99;92655.78;5110567;28;20153;-33
2022/01/06 04:31:17;;;;;;;44.42;23.90;;;;;;;0.49;82.70;92667.66;5110420;28;20034;-33
2022/01/06 04:33:43;;;;;;;43.08;24.60;;;;;;;0.25;83.67;92662.13;5110571;28;20039;-33
2022/01/06 04:36:09;;;;;;;38.08;23.17;;;;;;;0.14;83.14;92668.34;5110568;28;20035;-33
2022/01/06 04:38:36;;;;;;;43.05;23.10;;;;;;;0.20;83.87;92679.16;5110535;28;20619;-33
2022/01/06 04:41:02;;;;;;;38.63;24.33;;;;;;;0.30;82.98;92683.09;5110989;28;20034;-33
2022/01/06 04:43:28;;;;;;;42.88;23.40;;;;;;;0.26;83.08;92696.19;5109128;28;20089;-33
2022/01/06 04:45:53;;;;;;;52.10;28.27;;;;;;;0.33;81.84;92679.34;5110244;28;20035;-33
2022/01/06 04:48:19;;;;;;;45.95;25.67;;;;;;;0.35;82.06;92685.75;5110262;28;20024;-33
2022/01/06 04:50:44;;;;;;;54.97;28.73;;;;;;;0.25;82.35;92691.97;5110405;28;20555;-33
2022/01/06 04:53:10;;;;;;;52.88;29.98;;;;;;;-0.05;83.15;92684.47;5109969;28;20022;-33
2022/01/06 04:55:35;;;;;;;55.78;31.63;;;;;;;0.12;83.29;92692.53;5110243;28;20051;-33
2022/01/06 04:58:01;;;;;;;49.38;27.35;;;;;;;0.23;82.81;92678.19;5110128;28;20036;-33
2022/01/06 05:00:26;;;;;;;55.38;28.58;;;;;;;0.22;83.40;92679.44;5109957;28;20086;-33
2022/01/06 05:02:52;;;;;;;60.88;33.10;;;;;;;0.08;83.50;92677.75;5110475;28;20417;-33
2022/01/06 05:05:17;;;;;;;88.55;41.25;;;;;;;0.13;82.91;92685.16;5110411;28;20061;-33
2022/01/06 05:07:44;;;;;;;83.70;46.85;;;;;;;-0.05;83.44;92670.16;5110343;28;20015;-33
2022/01/06 05:10:11;;;;;;;88.80;46.20;;;;;;;-0.03;83.65;92689.41;5110406;28;20076;-33
2022/01/06 05:12:41;;;;;;;93.88;50.10;;;;;;;-0.25;83.10;92668.50;5110586;28;20067;-33
2022/01/06 05:15:06;;;;;;;100.30;54.30;;;;;;;-0.23;84.71;92682.31;5114049;28;20483;-33
2022/01/06 05:17:32;;;;;;;81.38;47.30;;;;;;;-0.09;84.31;92689.41;5113766;28;20123;-33
2022/01/06 05:19:57;;;;;;;94.72;52.05;;;;;;;0.03;83.27;92684.69;5113994;28;20046;-33
2022/01/06 05:22:23;;;;;;;76.38;42.28;;;;;;;-0.07;82.97;92691.63;5113776;28;20023;-33
2022/01/06 05:24:49;;;;;;;70.15;38.95;;;;;;;-0.01;83.06;92706.66;5113905;28;20077;-33
2022/01/06 05:27:14;;;;;;;136.52;69.60;;;;;;;-0.33;83.07;92686.53;5113691;28;20027;-33
2022/01/06 05:29:40;;;;;;;72.95;39.33;;;;;;;-0.13;83.48;92683.50;5113848;28;20076;-33
2022/01/06 05:32:06;;;;;;;43.58;22.65;;;;;;;0.00;84.25;92685.69;5113533;27;20435;-33
2022/01/06 05:34:31;;;;;;;76.63;39.05;;;;;;;0.08;83.99;92691.31;5113677;28;20030;-33
2022/01/06 05:36:57;;;;;;;50.75;27.85;;;;;;;0.02;83.08;92690.59;5113777;27;20046;-33
2022/01/06 05:39:22;;;;;;;51.17;29.88;;;;;;;0.02;83.31;92683.22;5113521;28;20454;-33
2022/01/06 05:41:48;;;;;;;62.38;31.15;;;;;;;0.08;83.72;92697.50;5113288;28;20055;-33
2022/01/06 05:44:13;;;;;;;63.30;32.90;;;;;;;-0.11;84.07;92691.88;5113493;28;20118;-33
2022/01/06 05:46:39;;;;;;;70.10;37.10;;;;;;;-0.20;83.58;92689.47;5113210;28;20031;-33
2022/01/06 05:49:05;;;;;;;67.25;34.65;;;;;;;-0.35;83.40;92694.44;5113221;27;20020;-33
2022/01/06 05:51:30;;;;;;;106.30;54.33;;;;;;;-0.29;83.53;92707.97;5113565;28;20023;-33
2022/01/06 05:53:56;;;;;;;96.22;47.95;;;;;;;-0.21;83.72;92696.09;5112692;28;20104;-33
2022/01/06 05:56:22;;;;;;;86.13;44.92;;;;;;;-0.18;83.70;92708.69;5113241;28;20068;-33
2022/01/06 05:58:47;;;;;;;62.17;35.28;;;;;;;-0.31;83.97;92686.03;5113671;28;20023;-33
2022/01/06 06:01:13;;;;;;;62.10;33.50;;;;;;;-0.05;83.93;92710.88;5112973;27;20510;-33
2022/01/06 06:03:38;;;;;;;96.75;51.92;;;;;;;-0.08;83.58;92704.44;5113025;28;20024;-34
2022/01/06 06:06:04;;;;;;;74.95;37.70;;;;;;;-0.49;83.22;92681.13;5112963;28;20492;-33
2022/01/06 06:08:29;;;;;;;55.83;30.50;;;;;;;-0.35;82.51;92707.25;5112933;28;20024;-33
2022/01/06 06:10:55;;;;;;;69.55;37.55;;;;;;;-0.34;83.06;92706.75;5112879;28;20030;-33
2022/01/06 06:13:21;;;;;;;65.60;35.70;;;;;;;-0.47;84.30;92684.81;5112770;28;20035;-33
2022/01/06 06:15:46;;;;;;;77.22;40.90;;;;;;;-0.31;84.19;92686.78;5112776;28;20027;-33
2022/01/06 06:18:12;;;;;;;88.15;48.50;;;;;;;-0.17;84.02;92706.69;5112763;28;20412;-33
2022/01/06 06:20:42;;;;;;;116.03;59.35;;;;;;;-0.08;82.72;92701.75;5112696;27;20436;-33
2022/01/06 06:23:08;;;;;;;76.45;40.30;;;;;;;-0.14;83.25;92673.91;5112684;28;20149;-33
2022/01/06 06:25:34;;;;;;;89.28;46.97;;;;;;;-0.05;83.84;92702.72;5111941;28;20110;-33
2022/01/06 06:27:59;;;;;;;104.18;53.88;;;;;;;-0.09;82.99;92696.81;5112709;28;20161;-33
2022/01/06 06:30:25;;;;;;;122.55;57.10;;;;;;;-0.44;83.10;92680.38;5112473;28;20489;-33
2022/01/06 06:32:51;;;;;;;134.30;58.00;;;;;;;-0.21;82.80;92711.63;5112466;28;20019;-33
2022/01/06 06:35:16;;;;;;;79.35;40.22;;;;;;;-0.48;83.28;92713.19;5112684;28;20091;-33
2022/01/06 06:37:42;;;;;;;124.00;55.53;;;;;;;-0.45;84.05;92723.03;5112366;28;20032;-33
2022/01/06 06:40:08;;;;;;;95.18;41.00;;;;;;;-0.37;83.77;92721.28;5112290;28;20055;-33
2022/01/06 06:42:34;;;;;;;108.38;49.78;;;;;;;-0.42;84.84;92730.19;5112295;28;20027;-33
2022/01/06 06:44:59;;;;;;;55.28;30.90;;;;;;;-0.30;84.19;92709.19;5112128;28;20035;-33
2022/01/06 06:47:25;;;;;;;39.25;21.95;;;;;;;-0.01;83.92;92724.91;5112175;28;20058;-33
2022/01/06 06:49:50;;;;;;;59.53;28.92;;;;;;;0.08;83.76;92735.50;5112270;28;20168;-33
2022/01/06 06:52:16;;;;;;;63.97;32.28;;;;;;;-0.11;83.33;92708.16;5111061;28;20539;-33
2022/01/06 06:54:41;;;;;;;58.17;32.85;;;;;;;0.17;82.68;92731.75;5111729;28;20487;-34
2022/01/06 06:57:08;;;;;;;96.03;50.97;;;;;;;0.26;81.52;92726.06;5112178;28;20077;-33
2022/01/06 06:59:34;;;;;;;72.13;37.15;;;;;;;0.22;82.28;92736.44;5111877;28;20043;-33
2022/01/06 07:01:59;;;;;;;89.03;43.70;;;;;;;0.30;82.48;92742.81;5111700;28;20023;-33
2022/01/06 07:04:25;;;;;;;75.70;39.17;;;;;;;0.49;81.17;92744.44;5111920;28;20024;-33
2022/01/06 07:06:50;;;;;;;77.65;39.80;;;;;;;0.57;80.44;92750.09;5111794;28;20024;-33
2022/01/06 07:09:16;;;;;;;78.43;40.58;;;;;;;0.51;81.34;92750.13;5111575;28;20055;-33
2022/01/06 07:11:42;;;;;;;164.02;80.03;;;;;;;0.57;81.18;92747.38;5111991;28;20031;-33
2022/01/06 07:14:07;;;;;;;147.25;66.75;;;;;;;0.43;81.20;92759.28;5111766;28;20026;-33
2022/01/06 07:16:33;;;;;;;111.15;55.67;;;;;;;0.30;81.49;92753.66;5111709;28;20047;-33
2022/01/06 07:18:58;;;;;;;75.13;42.83;;;;;;;0.47;81.87;92751.63;5111490;28;20099;-33
2022/01/06 07:21:24;;;;;;;94.72;50.42;;;;;;;0.19;82.91;92761.84;5111588;28;20023;-33
2022/01/06 07:23:49;;;;;;;91.28;44.00;;;;;;;0.44;82.36;92764.22;5111300;28;20028;-33
2022/01/06 07:26:15;;;;;;;81.15;43.75;;;;;;;0.64;81.83;92771.28;5111021;28;20034;-33
2022/01/06 07:28:40;;;;;;;88.65;40.90;;;;;;;0.57;81.90;92764.41;5109908;28;20019;-33
2022/01/06 07:31:07;;;;;;;81.10;40.88;;;;;;;0.52;82.83;92759.00;5111414;28;20030;-33
2022/01/06 07:33:33;;;;;;;75.60;40.80;;;;;;;0.66;83.34;92764.13;5111415;28;20020;-33
2022/01/06 07:35:58;;;;;;;83.38;42.30;;;;;;;0.74;82.73;92756.16;5110994;28;20032;-33
2022/01/06 07:38:24;;;;;;;72.78;41.70;;;;;;;0.64;83.25;92755.75;5111257;28;20047;-33
2022/01/06 07:40:50;;;;;;;94.75;46.00;;;;;;;0.80;83.06;92746.03;5111395;28;20023;-33
2022/01/06 07:43:15;;;;;;;95.47;52.08;;;;;;;0.74;83.63;92745.28;5111169;28;20030;-33
2022/01/06 07:45:41;;;;;;;123.80;62.00;;;;;;;0.73;82.93;92717.41;5111027;28;20011;-33
2022/01/06 07:48:16;;;;;;;125.82;68.25;;;;;;;1.12;81.43;92749.78;5110849;28;20129;-33
2022/01/06 07:50:42;;;;;;;124.15;65.88;;;;;;;1.30;81.54;92751.84;5111311;28;20152;-33
2022/01/06 07:53:08;;;;;;;111.63;60.25;;;;;;;1.31;81.22;92758.03;5110386;28;20114;-33
2022/01/06 07:55:33;;;;;;;90.28;49.88;;;;;;;1.42;80.47;92760.66;5111224;28;20119;-33
2022/01/06 07:57:59;;;;;;;84.50;47.58;;;;;;;1.21;81.36;92773.91;5110811;28;20473;-34
2022/01/06 08:00:25;;;;;;;75.68;42.25;;;;;;;1.61;80.25;92777.81;5110703;28;20521;-33
2022/01/06 08:02:51;;;;;;;68.00;37.78;;;;;;;1.85;79.38;92777.13;5110859;28;20020;-34
2022/01/06 08:05:19;;;;;;;56.25;34.17;;;;;;;2.03;79.43;92781.91;5110801;28;20046;-34
2022/01/06 08:07:45;;;;;;;68.20;38.30;;;;;;;2.27;78.04;92788.06;5110926;28;20023;-34
2022/01/06 08:10:10;;;;;;;70.82;40.70;;;;;;;2.47;77.35;92777.97;5110697;28;20507;-33
2022/01/06 08:12:36;;;;;;;64.13;36.55;;;;;;;2.73;76.71;92784.34;5109730;28;20027;-33
2022/01/06 08:15:02;;;;;;;49.90;30.25;;;;;;;3.07;75.34;92779.91;5110945;28;20539;-34
2022/01/06 08:17:28;;;;;;;35.03;21.55;;;;;;;3.36;75.38;92775.56;5110839;28;20106;-34
2022/01/06 08:19:53;;;;;;;44.20;27.33;;;;;;;3.64;73.65;92777.84;5110507;28;20095;-34
2022/01/06 08:22:20;;;;;;;95.40;54.58;;;;;;;3.60;72.86;92782.88;5110598;28;20027;-33
2022/01/06 08:24:45;;;;;;;82.40;48.22;;;;;;;3.74;72.37;92781.69;5110853;28;20416;-34
2022/01/06 08:27:11;;;;;;;57.80;39.92;;;;;;;3.82;72.78;92793.47;5110507;28;20020;-34
2022/01/06 08:29:37;;;;;;;75.22;43.00;;;;;;;4.22;71.82;92786.81;5110445;28;20115;-34
2022/01/06 08:32:03;;;;;;;72.35;47.65;;;;;;;4.55;70.65;92794.41;5110434;28;20019;-34
2022/01/06 08:34:29;;;;;;;81.47;49.10;;;;;;;4.36;69.74;92796.50;5110523;28;20300;-34
2022/01/06 08:36:54;;;;;;;73.47;46.15;;;;;;;4.77;70.48;92798.72;5109276;28;20302;-34
2022/01/06 08:39:21;;;;;;;101.90;60.40;;;;;;;5.51;68.14;92802.88;5110321;28;20027;-34
2022/01/06 08:41:47;;;;;;;82.30;54.55;;;;;;;5.93;66.43;92796.19;5110297;28;20561;-34
2022/01/06 08:44:12;;;;;;;74.28;46.95;;;;;;;6.10;65.72;92780.13;5110669;28;20386;-34
2022/01/06 08:46:38;;;;;;;84.55;56.75;;;;;;;6.69;64.89;92799.56;5110285;28;20030;-34
2022/01/06 08:49:06;;;;;;;95.20;60.20;;;;;;;6.97;62.90;92796.03;5113209;28;20021;-34
2022/01/06 08:51:31;;;;;;;46.20;32.25;;;;;;;6.80;64.82;92799.22;5114399;28;20051;-34
2022/01/06 08:53:57;;;;;;;99.20;59.67;;;;;;;7.20;62.74;92803.09;5113657;28;20066;-34
2022/01/06 08:56:22;;;;;;;89.60;53.97;;;;;;;7.33;61.35;92799.50;5114292;28;20108;-34
2022/01/06 08:58:48;;;;;;;78.28;51.25;;;;;;;7.35;61.58;92796.94;5114342;28;20065;-34
2022/01/06 09:01:13;;;;;;;95.85;59.70;;;;;;;7.45;61.50;92795.16;5113978;28;20096;-34
2022/01/06 09:03:39;;;;;;;97.15;58.03;;;;;;;7.43;61.52;92795.69;5114455;28;20015;-34
2022/01/06 09:06:04;;;;;;;96.40;57.88;;;;;;;7.53;61.95;92802.16;5114201;28;20028;-34
2022/01/06 09:08:30;;;;;;;73.78;46.13;;;;;;;7.84;61.08;92810.47;5113139;28;20056;-34
2022/01/06 09:10:55;;;;;;;70.13;44.80;;;;;;;7.96;59.99;92800.59;5114116;28;20024;-34
2022/01/06 09:13:21;;;;;;;63.88;43.00;;;;;;;8.41;60.13;92806.16;5113942;27;20019;-34
2022/01/06 09:15:47;;;;;;;89.35;56.53;;;;;;;8.81;57.66;92792.56;5114169;28;20038;-34
2022/01/06 09:18:12;;;;;;;81.07;55.15;;;;;;;9.23;56.58;92771.50;5113731;28;20020;-34
2022/01/06 09:20:38;;;;;;;81.22;55.83;;;;;;;9.82;55.27;92794.59;5112763;28;20020;-34
2022/01/06 09:23:03;;;;;;;73.53;51.58;;;;;;;10.17;53.55;92784.47;5113806;28;20480;-34
2022/01/06 09:25:29;;;;;;;82.43;57.78;;;;;;;10.62;52.82;92791.66;5113757;28;20030;-34
2022/01/06 09:27:54;;;;;;;74.00;53.33;;;;;;;10.73;51.91;92779.44;5114012;28;20063;-34
2022/01/06 09:30:23;;;;;;;75.45;54.17;;;;;;;10.82;52.00;92784.31;5113613;28;20106;-34
2022/01/06 09:32:49;;;;;;;69.10;51.40;;;;;;;11.40;51.53;92791.81;5113652;28;20027;-34
2022/01/06 09:35:15;;;;;;;107.47;68.45;;;;;;;10.41;52.63;92767.19;5113741;28;20051;-34
2022/01/06 09:37:41;;;;;;;110.15;73.65;;;;;;;10.97;53.79;92773.13;5113465;28;20054;-34
2022/01/06 09:40:09;;;;;;;75.82;52.75;;;;;;;11.46;51.26;92753.59;5113417;28;20070;-35
2022/01/06 09:42:35;;;;;;;77.80;54.05;;;;;;;12.58;50.40;92760.91;5113943;28;20020;-35
2022/01/06 09:45:01;;;;;;;76.65;53.13;;;;;;;13.29;47.17;92759.31;5113290;28;20045;-35
2022/01/06 09:47:27;;;;;;;84.05;55.17;;;;;;;13.82;47.26;92755.47;5113350;28;20019;-35
2022/01/06 09:49:53;;;;;;;56.90;40.22;;;;;;;14.92;43.56;92765.19;5113395;28;20020;-35
2022/01/06 09:52:21;;;;;;;47.55;33.72;;;;;;;15.45;41.84;92761.09;5113258;28;20039;-35
2022/01/06 09:54:46;;;;;;;29.33;20.73;;;;;;;15.83;41.15;92751.69;5112614;27;20102;-35
2022/01/06 09:57:14;;;;;;;41.42;29.95;;;;;;;16.57;40.42;92755.59;5112053;28;20111;-35
2022/01/06 09:59:43;;;;;;;30.65;20.52;;;;;;;17.26;38.66;92758.34;5111715;28;20428;-35
2022/01/06 10:02:15;;;;;;;25.35;18.67;;;;;;;17.62;38.17;92756.97;5113304;28;20116;-35
2022/01/06 10:04:41;;;;;;;25.30;18.58;;;;;;;17.64;37.44;92753.56;5113041;27;20024;-35
2022/01/06 10:07:08;;;;;;;25.95;18.08;;;;;;;18.09;37.61;92754.72;5113001;28;20038;-35
2022/01/06 10:09:35;;;;;;;19.73;15.45;;;;;;;18.29;36.71;92760.69;5112963;28;20489;-35
2022/01/06 10:12:06;;;;;;;17.88;14.48;;;;;;;18.86;35.29;92748.44;5113070;28;20393;-33
2022/01/06 10:14:44;;;;;;;16.90;13.55;;;;;;;19.50;34.79;92753.81;5113143;28;20020;-33
2022/01/06 10:17:15;;;;;;;13.82;11.57;;;;;;;20.04;32.40;92739.69;5112885;28;20660;-33
2022/01/06 10:19:42;;;;;;;17.20;14.02;;;;;;;20.23;32.75;92747.63;5112640;28;20024;-33
2022/01/06 10:22:15;;;;;;;22.15;17.20;;;;;;;20.45;32.24;92741.59;5112556;28;20126;-34
2022/01/06 10:24:44;;;;;;;26.27;19.88;;;;;;;20.21;31.99;92744.72;5112939;28;20028;-33
2022/01/06 10:27:12;;;;;;;26.20;19.27;;;;;;;20.31;33.27;92752.91;5112544;28;20496;-34
2022/01/06 10:29:48;;;;;;;20.77;17.27;;;;;;;20.63;32.94;92739.63;5112420;28;20092;-33
2022/01/06 10:32:26;;;;;;;38.88;26.98;;;;;;;20.78;31.64;92738.91;5112489;28;20034;-33
2022/01/06 10:34:53;;;;;;;27.02;20.27;;;;;;;21.12;31.15;92743.28;5112399;28;20027;-33
2022/01/06 10:37:27;;;;;;;25.33;19.02;;;;;;;21.52;31.80;92745.03;5112323;28;20505;-33
2022/01/06 10:39:57;;;;;;;18.15;15.90;;;;;;;22.28;29.55;92746.75;5112386;28;20485;-34
2022/01/06 10:42:32;;;;;;;17.40;13.88;;;;;;;22.38;28.52;92747.88;5112297;28;20023;-35
2022/01/06 10:45:04;;;;;;;34.28;16.95;;;;;;;22.98;28.57;92743.84;5112144;28;20509;-36
2022/01/06 10:47:32;;;;;;;21.95;16.02;;;;;;;23.25;28.30;92739.91;5112201;28;20028;-37
2022/01/06 10:50:21;;;;;;;17.20;13.20;;;;;;;23.23;27.32;92737.03;5112346;28;20027;-36
2022/01/06 10:52:55;;;;;;;63.58;33.83;;;;;;;23.84;25.56;92732.16;5111696;28;20534;-36
2022/01/06 10:55:28;;;;;;;18.70;12.93;;;;;;;23.68;25.52;92733.69;5112026;28;20042;-34
2022/01/06 10:58:00;;;;;;;18.55;13.60;;;;;;;24.59;25.62;92723.28;5112023;28;20024;-34
2022/01/06 11:00:36;;;;;;;18.70;11.35;;;;;;;25.07;25.39;92718.38;5111779;28;20130;-34
2022/01/06 11:03:16;;;;;;;43.20;24.38;;;;;;;25.20;25.08;92715.25;5111924;28;20055;-35
2022/01/06 11:05:45;;;;;;;8.13;6.63;;;;;;;24.73;22.91;92718.06;5112385;28;20076;-33
2022/01/06 11:08:12;;;;;;;8.30;6.53;;;;;;;24.66;24.21;92722.09;5111911;28;20080;-34
2022/01/06 11:10:46;;;;;;;10.25;6.28;;;;;;;24.79;24.28;92718.28;5111409;28;20034;-34
2022/01/06 11:13:11;;;;;;;6.03;4.28;;;;;;;24.92;23.01;92714.44;5111982;28;20024;-33
2022/01/06 11:15:37;;;;;;;5.72;4.65;;;;;;;24.72;23.55;92705.34;5111737;28;20539;-34
2022/01/06 11:18:05;;;;;;;6.25;4.18;;;;;;;24.50;23.84;92711.03;5111830;28;20016;-34
2022/01/06 11:20:31;;;;;;;5.47;3.60;;;;;;;24.21;23.22;92708.72;5111862;28;20033;-33
2022/01/06 11:22:58;;;;;;;4.45;3.20;;;;;;;23.82;23.21;92703.88;5111884;28;20028;-34
2022/01/06 11:25:37;;;;;;;4.43;3.22;;;;;;;23.61;22.58;92704.56;5111479;28;20034;-34
2022/01/06 11:28:07;;;;;;;4.95;3.67;;;;;;;23.65;26.18;92707.53;5111268;28;20032;-35
2022/01/06 11:30:47;;;;;;;11.88;3.80;;;;;;;23.77;24.67;92710.78;5144676;27;20106;-35
2022/01/06 11:33:14;;;;;;;3.72;2.63;;;;;;;22.96;23.33;92704.38;5111349;28;20105;-37